createdAt,value
2022-12-04T07:02:35.069Z,34.43
2022-12-04T08:25:52.852Z,35.80
2022-12-04T08:28:19.504Z,35.90
2022-12-04T08:30:46.165Z,32.03
2022-12-04T08:33:12.798Z,35.97
2022-12-04T08:35:39.396Z,33.00
2022-12-04T08:38:05.981Z,31.63
2022-12-04T08:40:35.869Z,33.33
2022-12-04T08:43:03.439Z,28.00
2022-12-04T08:45:30.565Z,27.80
2022-12-04T08:47:59.441Z,28.20
2022-12-04T08:50:27.744Z,28.13
2022-12-04T08:52:57.291Z,29.83
2022-12-04T08:55:25.570Z,28.70
2022-12-04T08:57:53.128Z,26.87
2022-12-04T09:00:20.799Z,25.10
2022-12-04T09:02:53.866Z,27.10
2022-12-04T09:05:21.688Z,26.10
2022-12-04T09:07:48.952Z,24.27
2022-12-04T09:10:19.412Z,23.33
2022-12-04T09:12:46.737Z,22.27
2022-12-04T09:15:16.693Z,22.63
2022-12-04T09:17:44.017Z,22.27
2022-12-04T09:20:13.830Z,21.23
2022-12-04T09:23:02.703Z,20.83
2022-12-04T09:25:28.596Z,20.67
2022-12-04T09:27:56.139Z,21.70
2022-12-04T09:30:24.160Z,20.67
2022-12-04T09:32:51.577Z,21.00
2022-12-04T09:35:18.826Z,20.97
2022-12-04T09:37:46.193Z,21.47
2022-12-04T09:40:37.143Z,20.07
2022-12-04T09:43:11.955Z,21.03
2022-12-04T09:45:53.616Z,19.57
2022-12-04T09:48:23.436Z,19.73
2022-12-04T09:50:51.745Z,19.27
2022-12-04T09:53:30.247Z,19.80
2022-12-04T09:56:27.994Z,19.60
2022-12-04T09:59:11.285Z,18.20
2022-12-04T10:01:50.806Z,18.27
2022-12-04T10:04:18.605Z,20.13
2022-12-04T10:06:55.442Z,18.30
2022-12-04T10:09:30.033Z,18.80
2022-12-04T10:12:07.954Z,19.60
2022-12-04T10:14:59.672Z,19.47
2022-12-04T10:17:32.247Z,19.83
2022-12-04T10:20:18.832Z,19.20
2022-12-04T10:23:14.132Z,21.13
2022-12-04T10:25:42.025Z,20.17
2022-12-04T10:28:27.883Z,20.30
2022-12-04T10:30:58.675Z,21.83
2022-12-04T10:33:47.899Z,19.73
2022-12-04T10:36:21.220Z,21.17
2022-12-04T10:38:54.933Z,21.27
2022-12-04T10:41:39.377Z,22.93
2022-12-04T10:44:07.270Z,22.87
2022-12-04T10:46:43.219Z,29.70
2022-12-04T10:49:29.051Z,26.37
2022-12-04T10:51:57.133Z,24.93
2022-12-04T10:54:58.812Z,26.07
2022-12-04T10:57:58.387Z,23.40
2022-12-04T11:00:32.432Z,22.70
2022-12-04T11:03:03.567Z,22.70
2022-12-04T11:05:36.329Z,24.60
2022-12-04T11:08:05.637Z,24.03
2022-12-04T11:10:43.368Z,26.27
2022-12-04T11:13:20.007Z,27.30
2022-12-04T11:15:51.611Z,24.87
2022-12-04T11:18:30.817Z,25.57
2022-12-04T11:21:01.251Z,25.43
2022-12-04T11:23:33.787Z,27.57
2022-12-04T11:26:05.774Z,27.80
2022-12-04T11:28:42.997Z,25.33
2022-12-04T11:31:16.744Z,27.07
2022-12-04T11:33:51.804Z,26.73
2022-12-04T11:36:27.436Z,23.83
2022-12-04T11:39:06.863Z,25.47
2022-12-04T11:41:36.265Z,27.60
2022-12-04T11:44:06.953Z,24.57
2022-12-04T11:46:37.022Z,25.13
2022-12-04T11:49:08.572Z,25.27
2022-12-04T11:51:39.282Z,29.10
2022-12-04T11:54:38.404Z,23.43
2022-12-04T11:57:31.830Z,23.67
2022-12-04T12:00:18.785Z,22.83
2022-12-04T12:03:01.174Z,22.83
2022-12-04T12:05:41.693Z,24.47
2022-12-04T12:08:35.767Z,25.50
2022-12-04T12:11:25.619Z,24.40
2022-12-04T12:14:24.961Z,25.30
2022-12-04T12:17:07.446Z,25.80
2022-12-04T12:19:59.840Z,25.30
2022-12-04T12:22:29.612Z,25.57
2022-12-04T12:25:22.267Z,25.33
2022-12-04T12:28:22.143Z,22.73
2022-12-04T12:31:06.105Z,23.47
2022-12-04T12:34:00.506Z,22.13
2022-12-04T12:36:33.701Z,23.03
2022-12-04T12:39:10.141Z,23.93
2022-12-04T12:41:46.078Z,23.93
2022-12-04T12:48:43.679Z,23.13
2022-12-04T12:51:39.984Z,23.17
2022-12-04T12:54:31.469Z,23.10
2022-12-04T12:57:10.536Z,23.53
2022-12-04T12:59:43.273Z,22.03
2022-12-04T13:02:34.588Z,23.37
2022-12-04T13:05:12.882Z,24.03
2022-12-04T13:12:06.474Z,21.53
2022-12-04T13:14:33.832Z,22.63
2022-12-04T13:17:14.916Z,21.57
2022-12-04T13:19:49.897Z,21.47
2022-12-04T13:22:43.851Z,20.50
2022-12-04T13:25:51.258Z,20.93
2022-12-04T13:28:40.885Z,20.63
2022-12-04T13:31:56.147Z,22.30
2022-12-04T13:34:58.479Z,20.47
2022-12-04T13:37:44.216Z,21.23
2022-12-04T13:40:45.771Z,23.53
2022-12-04T13:43:32.630Z,23.03
2022-12-04T13:46:09.802Z,22.27
2022-12-04T13:48:42.950Z,21.07
2022-12-04T13:51:38.850Z,21.40
2022-12-04T13:54:11.988Z,20.97
2022-12-04T13:56:41.473Z,21.83
2022-12-04T13:59:29.284Z,22.83
2022-12-04T14:02:28.334Z,23.03
2022-12-04T14:05:11.087Z,21.00
2022-12-04T14:12:01.199Z,21.77
2022-12-04T14:14:31.470Z,22.70
2022-12-04T14:16:59.781Z,23.93
2022-12-04T14:19:35.125Z,23.50
2022-12-04T14:22:02.813Z,21.40
2022-12-04T14:24:38.711Z,22.47
2022-12-04T14:27:34.196Z,23.43
2022-12-04T14:30:02.995Z,24.47
2022-12-04T14:32:35.186Z,25.73
2022-12-04T14:35:15.119Z,24.67
2022-12-04T14:37:52.354Z,25.50
2022-12-04T14:40:27.248Z,23.30
2022-12-04T14:43:02.910Z,25.90
2022-12-04T14:45:57.923Z,24.60
2022-12-04T14:48:57.547Z,23.47
2022-12-04T14:51:57.978Z,23.03
2022-12-04T14:54:43.480Z,24.30
2022-12-04T14:57:29.321Z,23.47
2022-12-04T14:59:57.229Z,23.20
2022-12-04T15:02:41.288Z,22.17
2022-12-04T15:05:12.482Z,22.03
2022-12-04T15:07:53.949Z,22.07
2022-12-04T15:10:55.708Z,24.10
2022-12-04T15:13:33.323Z,19.37
2022-12-04T15:16:16.446Z,19.47
2022-12-04T15:18:55.843Z,19.30
2022-12-04T15:21:31.192Z,19.73
2022-12-04T15:23:59.407Z,19.83
2022-12-04T15:26:27.733Z,19.27
2022-12-04T15:29:02.279Z,20.10
2022-12-04T15:31:40.343Z,20.47
2022-12-04T15:34:13.488Z,22.97
2022-12-04T15:36:46.765Z,23.57
2022-12-04T15:39:29.685Z,21.37
2022-12-04T15:42:39.417Z,19.53
2022-12-04T15:45:09.926Z,20.57
2022-12-04T15:47:53.919Z,21.87
2022-12-04T15:50:28.061Z,22.50
2022-12-04T15:53:07.303Z,23.87
2022-12-04T15:55:46.771Z,24.13
2022-12-04T15:58:31.906Z,19.20
2022-12-04T16:01:08.218Z,19.17
2022-12-04T16:04:02.857Z,19.27
2022-12-04T16:06:37.408Z,22.97
2022-12-04T16:09:25.843Z,24.93
2022-12-04T16:12:06.165Z,21.87
2022-12-04T16:14:35.334Z,19.40
2022-12-04T16:17:06.239Z,22.73
2022-12-04T16:19:45.909Z,20.97
2022-12-04T16:22:20.210Z,22.30
2022-12-04T16:24:50.602Z,19.57
2022-12-04T16:27:24.130Z,17.57
2022-12-04T16:29:52.999Z,17.53
2022-12-04T16:32:25.007Z,15.87
2022-12-04T16:34:52.577Z,17.67
2022-12-04T16:37:21.638Z,16.47
2022-12-04T16:39:53.282Z,20.73
2022-12-04T16:46:38.342Z,28.53
2022-12-04T16:49:12.933Z,19.77
2022-12-04T16:51:50.806Z,20.13
2022-12-04T16:54:24.707Z,20.67
2022-12-04T16:56:52.851Z,18.97
2022-12-04T16:59:20.671Z,16.80
2022-12-04T17:01:54.211Z,19.17
2022-12-04T17:04:57.735Z,19.10
2022-12-04T17:07:40.963Z,18.83
2022-12-04T17:10:11.652Z,17.37
2022-12-04T17:12:41.722Z,17.90
2022-12-04T17:15:19.672Z,18.10
2022-12-04T17:17:55.117Z,17.97
2022-12-04T17:20:32.459Z,17.37
2022-12-04T17:23:15.024Z,17.93
2022-12-04T17:26:24.701Z,16.70
2022-12-04T17:32:12.121Z,18.50
2022-12-04T17:35:38.605Z,19.17
2022-12-04T23:35:42.151Z,12.47
2022-12-04T23:38:12.474Z,13.57
2022-12-04T23:40:49.924Z,13.77
2022-12-04T23:43:34.687Z,13.00
2022-12-04T23:46:10.901Z,12.10
2022-12-04T23:48:40.051Z,10.87
2022-12-04T23:51:21.417Z,12.93
2022-12-04T23:53:52.708Z,13.80
2022-12-04T23:56:28.708Z,13.83
2022-12-04T23:59:03.963Z,12.90
